sensor_id;sensor_type;location;lat;lon;timestamp;P1;durP1;ratioP1;P2;durP2;ratioP2
7477;SDS011;3780;42.424;25.636;2022-07-29T00:00:43;6.32;;;3.65;;
7477;SDS011;3780;42.424;25.636;2022-07-29T00:03:11;4.68;;;3.47;;
7477;SDS011;3780;42.424;25.636;2022-07-29T00:05:38;5.97;;;3.78;;
7477;SDS011;3780;42.424;25.636;2022-07-29T00:08:05;6.50;;;3.70;;
7477;SDS011;3780;42.424;25.636;2022-07-29T00:10:31;9.20;;;4.10;;
7477;SDS011;3780;42.424;25.636;2022-07-29T00:12:56;6.78;;;3.70;;
7477;SDS011;3780;42.424;25.636;2022-07-29T00:15:22;5.38;;;4.18;;
7477;SDS011;3780;42.424;25.636;2022-07-29T00:17:47;5.28;;;3.78;;
7477;SDS011;3780;42.424;25.636;2022-07-29T00:20:13;4.53;;;3.63;;
7477;SDS011;3780;42.424;25.636;2022-07-29T00:22:38;7.90;;;4.20;;
7477;SDS011;3780;42.424;25.636;2022-07-29T00:25:04;7.30;;;4.38;;
7477;SDS011;3780;42.424;25.636;2022-07-29T00:27:31;5.70;;;4.15;;
7477;SDS011;3780;42.424;25.636;2022-07-29T00:29:56;7.95;;;4.00;;
7477;SDS011;3780;42.424;25.636;2022-07-29T00:32:22;5.07;;;4.22;;
7477;SDS011;3780;42.424;25.636;2022-07-29T00:34:47;5.78;;;3.95;;
7477;SDS011;3780;42.424;25.636;2022-07-29T00:37:31;7.43;;;4.28;;
7477;SDS011;3780;42.424;25.636;2022-07-29T00:39:57;8.80;;;3.83;;
7477;SDS011;3780;42.424;25.636;2022-07-29T00:42:23;7.15;;;3.78;;
7477;SDS011;3780;42.424;25.636;2022-07-29T00:44:48;4.88;;;4.20;;
7477;SDS011;3780;42.424;25.636;2022-07-29T00:47:14;8.50;;;3.90;;
7477;SDS011;3780;42.424;25.636;2022-07-29T00:49:40;6.93;;;4.18;;
7477;SDS011;3780;42.424;25.636;2022-07-29T00:52:08;5.88;;;4.22;;
7477;SDS011;3780;42.424;25.636;2022-07-29T00:54:35;7.95;;;4.15;;
7477;SDS011;3780;42.424;25.636;2022-07-29T00:57:02;6.60;;;4.18;;
7477;SDS011;3780;42.424;25.636;2022-07-29T00:59:28;4.97;;;3.70;;
7477;SDS011;3780;42.424;25.636;2022-07-29T01:01:54;8.02;;;4.47;;
7477;SDS011;3780;42.424;25.636;2022-07-29T01:04:20;6.22;;;4.35;;
7477;SDS011;3780;42.424;25.636;2022-07-29T01:06:49;6.28;;;4.18;;
7477;SDS011;3780;42.424;25.636;2022-07-29T01:09:16;6.97;;;4.43;;
7477;SDS011;3780;42.424;25.636;2022-07-29T01:11:43;6.93;;;4.30;;
7477;SDS011;3780;42.424;25.636;2022-07-29T01:14:13;5.38;;;4.32;;
7477;SDS011;3780;42.424;25.636;2022-07-29T01:16:42;12.25;;;4.60;;
7477;SDS011;3780;42.424;25.636;2022-07-29T01:21:57;6.85;;;3.88;;
7477;SDS011;3780;42.424;25.636;2022-07-29T01:24:46;7.18;;;3.85;;
7477;SDS011;3780;42.424;25.636;2022-07-29T01:30:42;4.88;;;3.72;;
7477;SDS011;3780;42.424;25.636;2022-07-29T01:33:11;5.25;;;3.80;;
7477;SDS011;3780;42.424;25.636;2022-07-29T01:36:01;5.13;;;3.97;;
7477;SDS011;3780;42.424;25.636;2022-07-29T01:38:34;6.07;;;4.10;;
7477;SDS011;3780;42.424;25.636;2022-07-29T01:41:11;4.93;;;3.80;;
7477;SDS011;3780;42.424;25.636;2022-07-29T01:43:51;4.97;;;4.20;;
7477;SDS011;3780;42.424;25.636;2022-07-29T01:46:22;5.60;;;3.90;;
7477;SDS011;3780;42.424;25.636;2022-07-29T01:48:55;8.38;;;3.95;;
7477;SDS011;3780;42.424;25.636;2022-07-29T01:51:45;7.53;;;4.25;;
7477;SDS011;3780;42.424;25.636;2022-07-29T01:54:18;5.97;;;4.70;;
7477;SDS011;3780;42.424;25.636;2022-07-29T01:56:50;8.05;;;4.22;;
7477;SDS011;3780;42.424;25.636;2022-07-29T01:59:18;8.07;;;4.45;;
7477;SDS011;3780;42.424;25.636;2022-07-29T02:01:47;8.25;;;4.38;;
7477;SDS011;3780;42.424;25.636;2022-07-29T02:04:13;9.07;;;4.68;;
7477;SDS011;3780;42.424;25.636;2022-07-29T02:06:42;8.20;;;4.40;;
7477;SDS011;3780;42.424;25.636;2022-07-29T02:09:09;7.10;;;4.65;;
7477;SDS011;3780;42.424;25.636;2022-07-29T02:11:37;13.73;;;4.60;;
7477;SDS011;3780;42.424;25.636;2022-07-29T02:14:04;8.90;;;4.88;;
7477;SDS011;3780;42.424;25.636;2022-07-29T02:16:32;8.55;;;4.53;;
7477;SDS011;3780;42.424;25.636;2022-07-29T02:19:01;6.18;;;5.13;;
7477;SDS011;3780;42.424;25.636;2022-07-29T02:21:27;7.75;;;4.68;;
7477;SDS011;3780;42.424;25.636;2022-07-29T02:23:56;5.53;;;4.15;;
7477;SDS011;3780;42.424;25.636;2022-07-29T02:26:25;7.57;;;4.60;;
7477;SDS011;3780;42.424;25.636;2022-07-29T02:28:54;7.00;;;5.20;;
7477;SDS011;3780;42.424;25.636;2022-07-29T02:31:22;6.18;;;4.97;;
7477;SDS011;3780;42.424;25.636;2022-07-29T02:33:51;7.18;;;3.90;;
7477;SDS011;3780;42.424;25.636;2022-07-29T02:36:18;10.25;;;4.95;;
7477;SDS011;3780;42.424;25.636;2022-07-29T02:38:47;7.13;;;4.97;;
7477;SDS011;3780;42.424;25.636;2022-07-29T02:41:23;7.65;;;4.15;;
7477;SDS011;3780;42.424;25.636;2022-07-29T02:43:56;5.20;;;4.25;;
7477;SDS011;3780;42.424;25.636;2022-07-29T02:46:36;6.60;;;5.00;;
7477;SDS011;3780;42.424;25.636;2022-07-29T02:49:08;12.93;;;5.53;;
7477;SDS011;3780;42.424;25.636;2022-07-29T02:51:43;13.68;;;4.40;;
7477;SDS011;3780;42.424;25.636;2022-07-29T02:56:41;7.85;;;4.47;;
7477;SDS011;3780;42.424;25.636;2022-07-29T02:59:10;6.45;;;4.22;;
7477;SDS011;3780;42.424;25.636;2022-07-29T03:01:39;6.88;;;4.20;;
7477;SDS011;3780;42.424;25.636;2022-07-29T03:04:08;6.72;;;4.50;;
7477;SDS011;3780;42.424;25.636;2022-07-29T03:06:36;6.30;;;3.85;;
7477;SDS011;3780;42.424;25.636;2022-07-29T03:09:07;11.05;;;5.07;;
7477;SDS011;3780;42.424;25.636;2022-07-29T03:11:35;7.20;;;4.30;;
7477;SDS011;3780;42.424;25.636;2022-07-29T03:14:01;6.95;;;4.10;;
7477;SDS011;3780;42.424;25.636;2022-07-29T03:16:29;9.82;;;4.57;;
7477;SDS011;3780;42.424;25.636;2022-07-29T03:18:55;7.65;;;4.63;;
7477;SDS011;3780;42.424;25.636;2022-07-29T03:21:21;6.38;;;4.38;;
7477;SDS011;3780;42.424;25.636;2022-07-29T03:23:47;7.60;;;4.40;;
7477;SDS011;3780;42.424;25.636;2022-07-29T03:26:12;7.20;;;4.03;;
7477;SDS011;3780;42.424;25.636;2022-07-29T03:28:38;11.45;;;4.28;;
7477;SDS011;3780;42.424;25.636;2022-07-29T03:31:03;5.57;;;4.15;;
7477;SDS011;3780;42.424;25.636;2022-07-29T03:33:29;12.93;;;4.82;;
7477;SDS011;3780;42.424;25.636;2022-07-29T03:35:55;14.23;;;5.68;;
7477;SDS011;3780;42.424;25.636;2022-07-29T03:38:21;12.48;;;4.80;;
7477;SDS011;3780;42.424;25.636;2022-07-29T03:40:51;20.40;;;6.00;;
7477;SDS011;3780;42.424;25.636;2022-07-29T03:43:19;11.60;;;4.13;;
7477;SDS011;3780;42.424;25.636;2022-07-29T03:45:47;10.55;;;4.72;;
7477;SDS011;3780;42.424;25.636;2022-07-29T03:48:16;16.75;;;5.88;;
7477;SDS011;3780;42.424;25.636;2022-07-29T03:50:44;15.25;;;4.75;;
7477;SDS011;3780;42.424;25.636;2022-07-29T03:53:10;10.15;;;4.70;;
7477;SDS011;3780;42.424;25.636;2022-07-29T03:55:37;12.40;;;4.70;;
7477;SDS011;3780;42.424;25.636;2022-07-29T03:58:07;11.02;;;6.20;;
7477;SDS011;3780;42.424;25.636;2022-07-29T04:00:33;7.93;;;4.25;;
7477;SDS011;3780;42.424;25.636;2022-07-29T04:02:59;6.50;;;4.28;;
7477;SDS011;3780;42.424;25.636;2022-07-29T04:05:26;6.00;;;4.00;;
7477;SDS011;3780;42.424;25.636;2022-07-29T04:07:52;7.03;;;4.00;;
7477;SDS011;3780;42.424;25.636;2022-07-29T04:10:17;4.75;;;4.22;;
7477;SDS011;3780;42.424;25.636;2022-07-29T04:12:48;10.43;;;4.57;;
7477;SDS011;3780;42.424;25.636;2022-07-29T04:15:14;8.27;;;4.32;;
7477;SDS011;3780;42.424;25.636;2022-07-29T04:17:39;16.27;;;5.28;;
7477;SDS011;3780;42.424;25.636;2022-07-29T04:20:05;10.00;;;4.82;;
7477;SDS011;3780;42.424;25.636;2022-07-29T04:22:31;12.00;;;4.60;;
7477;SDS011;3780;42.424;25.636;2022-07-29T04:24:57;8.48;;;6.63;;
7477;SDS011;3780;42.424;25.636;2022-07-29T04:27:22;13.25;;;6.78;;
7477;SDS011;3780;42.424;25.636;2022-07-29T04:29:48;12.88;;;7.80;;
7477;SDS011;3780;42.424;25.636;2022-07-29T04:32:13;14.48;;;7.45;;
7477;SDS011;3780;42.424;25.636;2022-07-29T04:34:39;25.13;;;15.02;;
7477;SDS011;3780;42.424;25.636;2022-07-29T04:37:04;13.27;;;8.63;;
7477;SDS011;3780;42.424;25.636;2022-07-29T04:39:30;7.93;;;4.57;;
7477;SDS011;3780;42.424;25.636;2022-07-29T04:41:55;9.30;;;4.88;;
7477;SDS011;3780;42.424;25.636;2022-07-29T04:44:21;7.88;;;4.40;;
7477;SDS011;3780;42.424;25.636;2022-07-29T04:46:47;7.55;;;4.05;;
7477;SDS011;3780;42.424;25.636;2022-07-29T04:49:12;11.10;;;5.10;;
7477;SDS011;3780;42.424;25.636;2022-07-29T04:51:38;12.70;;;4.53;;
7477;SDS011;3780;42.424;25.636;2022-07-29T04:54:03;7.68;;;3.80;;
7477;SDS011;3780;42.424;25.636;2022-07-29T04:56:29;18.13;;;4.68;;
7477;SDS011;3780;42.424;25.636;2022-07-29T04:58:54;17.27;;;4.32;;
7477;SDS011;3780;42.424;25.636;2022-07-29T05:01:20;10.90;;;3.60;;
7477;SDS011;3780;42.424;25.636;2022-07-29T05:03:45;9.95;;;4.82;;
7477;SDS011;3780;42.424;25.636;2022-07-29T05:06:11;7.63;;;4.00;;
7477;SDS011;3780;42.424;25.636;2022-07-29T05:08:36;18.15;;;5.03;;
7477;SDS011;3780;42.424;25.636;2022-07-29T05:11:02;9.60;;;4.15;;
7477;SDS011;3780;42.424;25.636;2022-07-29T05:13:28;9.32;;;4.13;;
7477;SDS011;3780;42.424;25.636;2022-07-29T05:15:54;15.68;;;4.22;;
7477;SDS011;3780;42.424;25.636;2022-07-29T05:18:19;7.47;;;4.22;;
7477;SDS011;3780;42.424;25.636;2022-07-29T05:20:45;12.55;;;4.65;;
7477;SDS011;3780;42.424;25.636;2022-07-29T05:23:10;12.88;;;3.95;;
7477;SDS011;3780;42.424;25.636;2022-07-29T05:25:45;8.23;;;3.42;;
7477;SDS011;3780;42.424;25.636;2022-07-29T05:28:15;10.60;;;3.53;;
7477;SDS011;3780;42.424;25.636;2022-07-29T05:30:40;9.82;;;4.90;;
7477;SDS011;3780;42.424;25.636;2022-07-29T05:33:06;9.40;;;4.07;;
7477;SDS011;3780;42.424;25.636;2022-07-29T05:35:32;12.73;;;5.70;;
7477;SDS011;3780;42.424;25.636;2022-07-29T05:37:59;7.22;;;4.60;;
7477;SDS011;3780;42.424;25.636;2022-07-29T05:40:25;7.55;;;3.60;;
7477;SDS011;3780;42.424;25.636;2022-07-29T05:42:50;5.93;;;3.20;;
7477;SDS011;3780;42.424;25.636;2022-07-29T05:45:16;10.25;;;2.88;;
7477;SDS011;3780;42.424;25.636;2022-07-29T05:47:41;10.43;;;3.92;;
7477;SDS011;3780;42.424;25.636;2022-07-29T05:50:07;4.68;;;2.65;;
7477;SDS011;3780;42.424;25.636;2022-07-29T05:52:33;6.05;;;2.78;;
7477;SDS011;3780;42.424;25.636;2022-07-29T05:54:59;4.28;;;2.90;;
7477;SDS011;3780;42.424;25.636;2022-07-29T05:57:27;5.55;;;2.40;;
7477;SDS011;3780;42.424;25.636;2022-07-29T05:59:53;6.20;;;3.75;;
7477;SDS011;3780;42.424;25.636;2022-07-29T06:02:19;10.35;;;3.35;;
7477;SDS011;3780;42.424;25.636;2022-07-29T06:04:44;9.60;;;3.67;;
7477;SDS011;3780;42.424;25.636;2022-07-29T06:07:10;3.78;;;2.30;;
7477;SDS011;3780;42.424;25.636;2022-07-29T06:09:36;6.28;;;2.30;;
7477;SDS011;3780;42.424;25.636;2022-07-29T06:12:02;8.73;;;3.22;;
7477;SDS011;3780;42.424;25.636;2022-07-29T06:14:28;8.40;;;2.92;;
7477;SDS011;3780;42.424;25.636;2022-07-29T06:16:54;5.45;;;2.35;;
7477;SDS011;3780;42.424;25.636;2022-07-29T06:19:20;5.50;;;3.05;;
7477;SDS011;3780;42.424;25.636;2022-07-29T06:21:46;5.50;;;3.17;;
7477;SDS011;3780;42.424;25.636;2022-07-29T06:24:13;7.07;;;2.35;;
7477;SDS011;3780;42.424;25.636;2022-07-29T06:26:40;7.60;;;2.80;;
7477;SDS011;3780;42.424;25.636;2022-07-29T06:29:06;8.50;;;3.35;;
7477;SDS011;3780;42.424;25.636;2022-07-29T06:31:32;5.18;;;2.60;;
7477;SDS011;3780;42.424;25.636;2022-07-29T06:33:58;5.90;;;2.67;;
7477;SDS011;3780;42.424;25.636;2022-07-29T06:36:23;4.30;;;2.35;;
7477;SDS011;3780;42.424;25.636;2022-07-29T06:38:49;4.10;;;1.98;;
7477;SDS011;3780;42.424;25.636;2022-07-29T06:41:14;4.18;;;2.90;;
7477;SDS011;3780;42.424;25.636;2022-07-29T06:43:42;4.50;;;2.10;;
7477;SDS011;3780;42.424;25.636;2022-07-29T06:46:10;8.23;;;2.60;;
7477;SDS011;3780;42.424;25.636;2022-07-29T06:48:38;4.82;;;2.15;;
7477;SDS011;3780;42.424;25.636;2022-07-29T06:51:04;3.78;;;2.22;;
7477;SDS011;3780;42.424;25.636;2022-07-29T06:53:31;2.92;;;2.17;;
7477;SDS011;3780;42.424;25.636;2022-07-29T06:55:57;4.03;;;2.17;;
7477;SDS011;3780;42.424;25.636;2022-07-29T06:58:24;5.20;;;3.45;;
7477;SDS011;3780;42.424;25.636;2022-07-29T07:00:50;2.63;;;2.10;;
7477;SDS011;3780;42.424;25.636;2022-07-29T07:03:16;4.35;;;2.15;;
7477;SDS011;3780;42.424;25.636;2022-07-29T07:05:43;8.75;;;2.90;;
7477;SDS011;3780;42.424;25.636;2022-07-29T07:08:09;5.82;;;3.25;;
7477;SDS011;3780;42.424;25.636;2022-07-29T07:10:35;4.97;;;2.20;;
7477;SDS011;3780;42.424;25.636;2022-07-29T07:13:01;4.32;;;2.40;;
7477;SDS011;3780;42.424;25.636;2022-07-29T07:15:27;6.45;;;2.45;;
7477;SDS011;3780;42.424;25.636;2022-07-29T07:17:53;7.85;;;2.65;;
7477;SDS011;3780;42.424;25.636;2022-07-29T07:20:19;7.97;;;2.30;;
7477;SDS011;3780;42.424;25.636;2022-07-29T07:22:44;10.05;;;2.97;;
7477;SDS011;3780;42.424;25.636;2022-07-29T07:25:10;5.68;;;2.50;;
7477;SDS011;3780;42.424;25.636;2022-07-29T07:27:36;4.07;;;2.03;;
7477;SDS011;3780;42.424;25.636;2022-07-29T07:30:03;5.15;;;2.30;;
7477;SDS011;3780;42.424;25.636;2022-07-29T07:32:30;8.73;;;2.80;;
7477;SDS011;3780;42.424;25.636;2022-07-29T07:34:56;6.47;;;2.72;;
7477;SDS011;3780;42.424;25.636;2022-07-29T07:37:22;5.80;;;2.55;;
7477;SDS011;3780;42.424;25.636;2022-07-29T07:39:49;3.15;;;1.90;;
7477;SDS011;3780;42.424;25.636;2022-07-29T07:42:15;3.08;;;2.00;;
7477;SDS011;3780;42.424;25.636;2022-07-29T07:44:40;7.47;;;2.25;;
7477;SDS011;3780;42.424;25.636;2022-07-29T07:47:06;3.65;;;2.45;;
7477;SDS011;3780;42.424;25.636;2022-07-29T07:49:32;4.60;;;2.20;;
7477;SDS011;3780;42.424;25.636;2022-07-29T07:51:57;5.28;;;2.30;;
7477;SDS011;3780;42.424;25.636;2022-07-29T07:54:23;4.38;;;2.42;;
7477;SDS011;3780;42.424;25.636;2022-07-29T07:56:48;8.93;;;2.92;;
7477;SDS011;3780;42.424;25.636;2022-07-29T07:59:14;2.60;;;2.20;;
7477;SDS011;3780;42.424;25.636;2022-07-29T08:01:41;4.60;;;2.20;;
7477;SDS011;3780;42.424;25.636;2022-07-29T08:04:07;4.63;;;2.22;;
7477;SDS011;3780;42.424;25.636;2022-07-29T08:06:33;4.38;;;2.10;;
7477;SDS011;3780;42.424;25.636;2022-07-29T08:09:00;3.47;;;2.40;;
7477;SDS011;3780;42.424;25.636;2022-07-29T08:11:25;3.33;;;2.22;;
7477;SDS011;3780;42.424;25.636;2022-07-29T08:13:51;3.38;;;2.08;;
7477;SDS011;3780;42.424;25.636;2022-07-29T08:16:17;3.03;;;2.15;;
7477;SDS011;3780;42.424;25.636;2022-07-29T08:18:43;3.90;;;2.15;;
7477;SDS011;3780;42.424;25.636;2022-07-29T08:21:10;2.60;;;2.17;;
7477;SDS011;3780;42.424;25.636;2022-07-29T08:23:37;6.45;;;2.58;;
7477;SDS011;3780;42.424;25.636;2022-07-29T08:26:11;7.90;;;3.10;;
7477;SDS011;3780;42.424;25.636;2022-07-29T08:28:37;6.45;;;3.25;;
7477;SDS011;3780;42.424;25.636;2022-07-29T08:31:04;3.17;;;2.72;;
7477;SDS011;3780;42.424;25.636;2022-07-29T08:33:30;4.72;;;2.42;;
7477;SDS011;3780;42.424;25.636;2022-07-29T08:35:55;4.28;;;2.53;;
7477;SDS011;3780;42.424;25.636;2022-07-29T08:38:21;5.50;;;2.33;;
7477;SDS011;3780;42.424;25.636;2022-07-29T08:40:46;2.78;;;2.42;;
7477;SDS011;3780;42.424;25.636;2022-07-29T08:43:12;2.88;;;2.15;;
7477;SDS011;3780;42.424;25.636;2022-07-29T08:45:48;5.18;;;2.30;;
7477;SDS011;3780;42.424;25.636;2022-07-29T08:48:16;6.20;;;2.22;;
7477;SDS011;3780;42.424;25.636;2022-07-29T08:50:44;6.00;;;2.10;;
7477;SDS011;3780;42.424;25.636;2022-07-29T08:53:11;3.90;;;2.53;;
7477;SDS011;3780;42.424;25.636;2022-07-29T08:55:40;4.22;;;2.72;;
7477;SDS011;3780;42.424;25.636;2022-07-29T08:58:08;18.13;;;13.63;;
7477;SDS011;3780;42.424;25.636;2022-07-29T09:00:34;7.82;;;4.68;;
7477;SDS011;3780;42.424;25.636;2022-07-29T09:03:02;7.07;;;2.90;;
7477;SDS011;3780;42.424;25.636;2022-07-29T09:05:30;7.57;;;2.50;;
7477;SDS011;3780;42.424;25.636;2022-07-29T09:07:57;6.20;;;2.45;;
7477;SDS011;3780;42.424;25.636;2022-07-29T09:10:24;4.88;;;2.50;;
7477;SDS011;3780;42.424;25.636;2022-07-29T09:12:49;5.18;;;2.55;;
7477;SDS011;3780;42.424;25.636;2022-07-29T09:15:15;8.02;;;2.47;;
7477;SDS011;3780;42.424;25.636;2022-07-29T09:17:43;5.65;;;2.42;;
7477;SDS011;3780;42.424;25.636;2022-07-29T09:20:13;6.45;;;2.63;;
7477;SDS011;3780;42.424;25.636;2022-07-29T09:22:40;5.82;;;2.17;;
7477;SDS011;3780;42.424;25.636;2022-07-29T09:25:06;7.55;;;2.80;;
7477;SDS011;3780;42.424;25.636;2022-07-29T09:27:32;3.63;;;2.40;;
7477;SDS011;3780;42.424;25.636;2022-07-29T09:30:08;5.40;;;2.85;;
7477;SDS011;3780;42.424;25.636;2022-07-29T09:32:56;6.53;;;2.58;;
7477;SDS011;3780;42.424;25.636;2022-07-29T09:35:24;11.10;;;2.40;;
7477;SDS011;3780;42.424;25.636;2022-07-29T09:37:51;2.97;;;2.13;;
7477;SDS011;3780;42.424;25.636;2022-07-29T09:40:18;7.68;;;2.45;;
7477;SDS011;3780;42.424;25.636;2022-07-29T09:42:45;5.30;;;2.33;;
7477;SDS011;3780;42.424;25.636;2022-07-29T09:45:11;7.45;;;3.17;;
7477;SDS011;3780;42.424;25.636;2022-07-29T09:47:41;7.50;;;2.28;;
7477;SDS011;3780;42.424;25.636;2022-07-29T09:50:06;2.78;;;2.30;;
7477;SDS011;3780;42.424;25.636;2022-07-29T09:52:32;4.32;;;3.20;;
7477;SDS011;3780;42.424;25.636;2022-07-29T09:55:18;6.88;;;2.58;;
7477;SDS011;3780;42.424;25.636;2022-07-29T09:57:45;3.70;;;2.40;;
7477;SDS011;3780;42.424;25.636;2022-07-29T10:00:12;2.97;;;2.38;;
7477;SDS011;3780;42.424;25.636;2022-07-29T10:02:43;2.53;;;2.33;;
7477;SDS011;3780;42.424;25.636;2022-07-29T10:07:46;3.05;;;2.42;;
7477;SDS011;3780;42.424;25.636;2022-07-29T10:10:34;3.40;;;2.67;;
7477;SDS011;3780;42.424;25.636;2022-07-29T10:13:01;8.35;;;2.22;;
7477;SDS011;3780;42.424;25.636;2022-07-29T10:15:30;5.88;;;2.30;;
7477;SDS011;3780;42.424;25.636;2022-07-29T10:17:57;8.02;;;2.30;;
7477;SDS011;3780;42.424;25.636;2022-07-29T10:20:24;4.43;;;2.10;;
7477;SDS011;3780;42.424;25.636;2022-07-29T10:22:51;7.57;;;2.55;;
7477;SDS011;3780;42.424;25.636;2022-07-29T10:25:17;5.32;;;2.20;;
7477;SDS011;3780;42.424;25.636;2022-07-29T10:27:44;5.00;;;1.88;;
7477;SDS011;3780;42.424;25.636;2022-07-29T10:30:11;6.05;;;2.17;;
7477;SDS011;3780;42.424;25.636;2022-07-29T10:32:42;8.23;;;2.20;;
7477;SDS011;3780;42.424;25.636;2022-07-29T10:44:13;3.85;;;2.10;;
7477;SDS011;3780;42.424;25.636;2022-07-29T10:46:41;2.40;;;2.20;;
7477;SDS011;3780;42.424;25.636;2022-07-29T10:49:08;3.10;;;2.22;;
7477;SDS011;3780;42.424;25.636;2022-07-29T10:54:38;5.05;;;2.28;;
7477;SDS011;3780;42.424;25.636;2022-07-29T10:57:37;7.35;;;3.92;;
7477;SDS011;3780;42.424;25.636;2022-07-29T11:05:10;4.60;;;2.10;;
7477;SDS011;3780;42.424;25.636;2022-07-29T11:07:38;3.25;;;2.00;;
7477;SDS011;3780;42.424;25.636;2022-07-29T11:15:06;4.50;;;1.83;;
7477;SDS011;3780;42.424;25.636;2022-07-29T11:18:15;4.20;;;2.40;;
7477;SDS011;3780;42.424;25.636;2022-07-29T11:20:45;6.60;;;2.00;;
7477;SDS011;3780;42.424;25.636;2022-07-29T11:23:25;3.97;;;2.00;;
7477;SDS011;3780;42.424;25.636;2022-07-29T11:31:17;5.32;;;2.20;;
7477;SDS011;3780;42.424;25.636;2022-07-29T11:34:05;5.90;;;2.33;;
7477;SDS011;3780;42.424;25.636;2022-07-29T11:37:12;2.60;;;1.88;;
7477;SDS011;3780;42.424;25.636;2022-07-29T11:39:31;5.40;;;2.10;;
7477;SDS011;3780;42.424;25.636;2022-07-29T11:47:25;3.40;;;1.98;;
7477;SDS011;3780;42.424;25.636;2022-07-29T11:49:52;3.45;;;2.10;;
7477;SDS011;3780;42.424;25.636;2022-07-29T11:52:19;5.28;;;2.17;;
7477;SDS011;3780;42.424;25.636;2022-07-29T11:54:47;4.20;;;1.80;;
7477;SDS011;3780;42.424;25.636;2022-07-29T11:57:14;2.47;;;1.92;;
7477;SDS011;3780;42.424;25.636;2022-07-29T11:59:44;4.82;;;2.65;;
7477;SDS011;3780;42.424;25.636;2022-07-29T12:02:11;2.80;;;1.95;;
7477;SDS011;3780;42.424;25.636;2022-07-29T12:04:50;2.53;;;1.90;;
7477;SDS011;3780;42.424;25.636;2022-07-29T12:07:17;4.78;;;2.20;;
7477;SDS011;3780;42.424;25.636;2022-07-29T12:09:49;4.85;;;2.33;;
7477;SDS011;3780;42.424;25.636;2022-07-29T12:12:16;4.45;;;2.13;;
7477;SDS011;3780;42.424;25.636;2022-07-29T12:14:42;4.22;;;1.90;;
7477;SDS011;3780;42.424;25.636;2022-07-29T12:17:33;5.75;;;2.33;;
7477;SDS011;3780;42.424;25.636;2022-07-29T12:19:58;4.85;;;2.47;;
7477;SDS011;3780;42.424;25.636;2022-07-29T12:22:29;3.05;;;2.20;;
7477;SDS011;3780;42.424;25.636;2022-07-29T12:25:00;2.95;;;2.15;;
7477;SDS011;3780;42.424;25.636;2022-07-29T12:27:30;4.53;;;2.35;;
7477;SDS011;3780;42.424;25.636;2022-07-29T12:29:58;6.03;;;3.05;;
7477;SDS011;3780;42.424;25.636;2022-07-29T12:32:32;5.60;;;2.97;;
7477;SDS011;3780;42.424;25.636;2022-07-29T12:35:06;6.45;;;2.28;;
7477;SDS011;3780;42.424;25.636;2022-07-29T12:37:38;5.93;;;2.13;;
7477;SDS011;3780;42.424;25.636;2022-07-29T12:40:06;5.03;;;2.30;;
7477;SDS011;3780;42.424;25.636;2022-07-29T12:42:33;6.32;;;2.20;;
7477;SDS011;3780;42.424;25.636;2022-07-29T12:44:59;5.45;;;2.25;;
7477;SDS011;3780;42.424;25.636;2022-07-29T12:47:25;4.80;;;2.20;;
7477;SDS011;3780;42.424;25.636;2022-07-29T12:49:51;4.60;;;2.22;;
7477;SDS011;3780;42.424;25.636;2022-07-29T12:52:34;3.60;;;1.98;;
7477;SDS011;3780;42.424;25.636;2022-07-29T12:55:00;7.88;;;2.20;;
7477;SDS011;3780;42.424;25.636;2022-07-29T12:57:26;3.28;;;2.10;;
7477;SDS011;3780;42.424;25.636;2022-07-29T13:00:03;7.65;;;2.42;;
7477;SDS011;3780;42.424;25.636;2022-07-29T13:02:29;4.70;;;2.22;;
7477;SDS011;3780;42.424;25.636;2022-07-29T13:04:55;2.58;;;1.92;;
7477;SDS011;3780;42.424;25.636;2022-07-29T13:07:26;7.68;;;2.22;;
7477;SDS011;3780;42.424;25.636;2022-07-29T13:12:34;3.67;;;2.10;;
7477;SDS011;3780;42.424;25.636;2022-07-29T13:14:59;6.13;;;2.13;;
7477;SDS011;3780;42.424;25.636;2022-07-29T13:17:25;4.18;;;2.20;;
7477;SDS011;3780;42.424;25.636;2022-07-29T13:20:07;5.15;;;2.20;;
7477;SDS011;3780;42.424;25.636;2022-07-29T13:22:37;4.95;;;1.90;;
7477;SDS011;3780;42.424;25.636;2022-07-29T13:25:04;7.25;;;2.22;;
7477;SDS011;3780;42.424;25.636;2022-07-29T13:27:32;7.80;;;2.47;;
7477;SDS011;3780;42.424;25.636;2022-07-29T13:30:02;2.40;;;2.20;;
7477;SDS011;3780;42.424;25.636;2022-07-29T13:32:31;8.85;;;2.42;;
7477;SDS011;3780;42.424;25.636;2022-07-29T13:35:00;6.80;;;2.35;;
7477;SDS011;3780;42.424;25.636;2022-07-29T13:37:27;6.40;;;2.22;;
7477;SDS011;3780;42.424;25.636;2022-07-29T13:39:54;9.18;;;2.55;;
7477;SDS011;3780;42.424;25.636;2022-07-29T13:42:24;4.45;;;2.03;;
7477;SDS011;3780;42.424;25.636;2022-07-29T13:44:51;6.25;;;3.38;;
7477;SDS011;3780;42.424;25.636;2022-07-29T13:47:17;6.80;;;2.10;;
7477;SDS011;3780;42.424;25.636;2022-07-29T13:49:46;6.78;;;2.17;;
7477;SDS011;3780;42.424;25.636;2022-07-29T13:52:12;4.28;;;2.03;;
7477;SDS011;3780;42.424;25.636;2022-07-29T13:54:38;6.68;;;2.38;;
7477;SDS011;3780;42.424;25.636;2022-07-29T13:57:04;3.75;;;2.05;;
7477;SDS011;3780;42.424;25.636;2022-07-29T13:59:30;5.65;;;2.40;;
7477;SDS011;3780;42.424;25.636;2022-07-29T14:01:55;3.70;;;2.10;;
7477;SDS011;3780;42.424;25.636;2022-07-29T14:04:21;3.67;;;2.33;;
7477;SDS011;3780;42.424;25.636;2022-07-29T14:06:48;6.25;;;2.15;;
7477;SDS011;3780;42.424;25.636;2022-07-29T14:09:14;7.45;;;2.70;;
7477;SDS011;3780;42.424;25.636;2022-07-29T14:11:40;3.80;;;2.38;;
7477;SDS011;3780;42.424;25.636;2022-07-29T14:14:05;5.70;;;2.70;;
7477;SDS011;3780;42.424;25.636;2022-07-29T14:16:31;5.22;;;2.25;;
7477;SDS011;3780;42.424;25.636;2022-07-29T14:18:57;3.47;;;2.25;;
7477;SDS011;3780;42.424;25.636;2022-07-29T14:21:22;4.88;;;2.30;;
7477;SDS011;3780;42.424;25.636;2022-07-29T14:23:48;5.03;;;2.40;;
7477;SDS011;3780;42.424;25.636;2022-07-29T14:26:13;3.88;;;2.33;;
7477;SDS011;3780;42.424;25.636;2022-07-29T14:28:39;4.00;;;2.40;;
7477;SDS011;3780;42.424;25.636;2022-07-29T14:31:04;4.03;;;2.30;;
7477;SDS011;3780;42.424;25.636;2022-07-29T14:33:30;6.95;;;2.78;;
7477;SDS011;3780;42.424;25.636;2022-07-29T14:35:56;4.35;;;2.70;;
7477;SDS011;3780;42.424;25.636;2022-07-29T14:38:21;3.63;;;2.20;;
7477;SDS011;3780;42.424;25.636;2022-07-29T14:40:47;3.75;;;2.17;;
7477;SDS011;3780;42.424;25.636;2022-07-29T14:43:13;6.28;;;2.45;;
7477;SDS011;3780;42.424;25.636;2022-07-29T14:45:39;3.28;;;2.13;;
7477;SDS011;3780;42.424;25.636;2022-07-29T14:48:05;5.85;;;1.98;;
7477;SDS011;3780;42.424;25.636;2022-07-29T14:50:31;3.55;;;2.30;;
7477;SDS011;3780;42.424;25.636;2022-07-29T14:52:56;7.88;;;2.30;;
7477;SDS011;3780;42.424;25.636;2022-07-29T14:55:22;4.80;;;2.20;;
7477;SDS011;3780;42.424;25.636;2022-07-29T14:57:48;2.53;;;2.17;;
7477;SDS011;3780;42.424;25.636;2022-07-29T15:00:15;8.18;;;2.38;;
7477;SDS011;3780;42.424;25.636;2022-07-29T15:02:41;6.78;;;2.50;;
7477;SDS011;3780;42.424;25.636;2022-07-29T15:05:07;3.92;;;2.17;;
7477;SDS011;3780;42.424;25.636;2022-07-29T15:07:33;3.47;;;2.30;;
7477;SDS011;3780;42.424;25.636;2022-07-29T15:09:59;3.33;;;2.33;;
7477;SDS011;3780;42.424;25.636;2022-07-29T15:12:24;4.55;;;2.05;;
7477;SDS011;3780;42.424;25.636;2022-07-29T15:14:50;5.07;;;2.28;;
7477;SDS011;3780;42.424;25.636;2022-07-29T15:17:15;8.23;;;2.38;;
7477;SDS011;3780;42.424;25.636;2022-07-29T15:19:41;6.30;;;2.33;;
7477;SDS011;3780;42.424;25.636;2022-07-29T15:22:06;6.85;;;2.22;;
7477;SDS011;3780;42.424;25.636;2022-07-29T15:24:32;2.90;;;2.17;;
7477;SDS011;3780;42.424;25.636;2022-07-29T15:26:58;3.83;;;2.30;;
7477;SDS011;3780;42.424;25.636;2022-07-29T15:29:23;2.83;;;2.08;;
7477;SDS011;3780;42.424;25.636;2022-07-29T15:31:49;5.63;;;2.20;;
7477;SDS011;3780;42.424;25.636;2022-07-29T15:34:15;3.70;;;2.53;;
7477;SDS011;3780;42.424;25.636;2022-07-29T15:36:40;7.35;;;2.55;;
7477;SDS011;3780;42.424;25.636;2022-07-29T15:39:06;7.18;;;2.17;;
7477;SDS011;3780;42.424;25.636;2022-07-29T15:41:32;4.60;;;2.00;;
7477;SDS011;3780;42.424;25.636;2022-07-29T15:43:58;5.85;;;2.20;;
7477;SDS011;3780;42.424;25.636;2022-07-29T15:46:24;4.43;;;2.22;;
7477;SDS011;3780;42.424;25.636;2022-07-29T15:49:08;4.63;;;2.00;;
7477;SDS011;3780;42.424;25.636;2022-07-29T15:51:34;9.85;;;2.42;;